Time;durP1;ratioP1;P1;durP2;ratioP2;P2;SDS_P1;SDS_P2;PMS_P1;PMS_P2;Temp;Humidity;BMP_temperature;BMP_pressure;BME280_temperature;BME280_humidity;BME280_pressure;Samples;Min_cycle;Max_cycle;Signal;HPM_P1;HPM_P2
2023/06/22 05:02:11;;;;;;;14.88;8.35;;;21.30;99.90;;;;;;5654548;23;20259;-74
2023/06/22 05:04:38;;;;;;;15.75;8.85;;;21.40;99.90;;;;;;5021397;28;20056;-73
2023/06/22 05:07:04;;;;;;;12.90;7.80;;;21.50;99.90;;;;;;5025311;28;20024;-74
2023/06/22 05:09:30;;;;;;;12.45;8.55;;;21.60;99.90;;;;;;5025684;28;20029;-73
2023/06/22 05:11:56;;;;;;;11.75;7.78;;;21.70;99.90;;;;;;5025700;28;20028;-72
2023/06/22 05:14:22;;;;;;;11.95;8.00;;;21.90;99.90;;;;;;5025947;28;20050;-73
2023/06/22 05:16:49;;;;;;;11.02;7.53;;;21.90;99.90;;;;;;5007954;28;20341;-74
2023/06/22 05:19:15;;;;;;;15.00;7.63;;;22.00;99.90;;;;;;5025836;28;20032;-73
2023/06/22 05:21:40;;;;;;;9.80;6.97;;;22.20;99.90;;;;;;5008318;28;20037;-74
2023/06/22 05:24:06;;;;;;;10.70;6.85;;;22.30;99.90;;;;;;5015491;28;20549;-73
2023/06/22 05:26:34;;;;;;;11.25;7.28;;;22.40;99.90;;;;;;5006022;28;20042;-73
2023/06/22 05:29:00;;;;;;;10.82;6.25;;;22.50;99.90;;;;;;4988127;28;20022;-72
2023/06/22 05:31:26;;;;;;;10.48;6.70;;;22.60;99.90;;;;;;5005730;28;20231;-74
2023/06/22 05:33:54;;;;;;;7.63;5.60;;;22.70;99.90;;;;;;4988152;28;20098;-73
2023/06/22 05:36:21;;;;;;;13.15;6.53;;;22.90;99.90;;;;;;5017860;28;20064;-73
2023/06/22 05:38:47;;;;;;;13.45;6.40;;;22.90;99.90;;;;;;5025140;28;20349;-73
2023/06/22 05:41:13;;;;;;;10.73;6.22;;;23.10;99.90;;;;;;5008197;28;20100;-80
2023/06/22 05:43:40;;;;;;;11.38;6.55;;;23.10;99.90;;;;;;5023380;28;20050;-75
2023/06/22 05:46:05;;;;;;;9.13;6.43;;;23.20;99.90;;;;;;5006864;28;20040;-76
2023/06/22 05:48:31;;;;;;;10.23;6.75;;;23.20;99.90;;;;;;5007239;28;20257;-75
2023/06/22 05:50:57;;;;;;;10.23;6.63;;;23.10;99.90;;;;;;5024731;28;20030;-75
2023/06/22 05:53:23;;;;;;;9.45;6.20;;;23.00;99.90;;;;;;5007520;28;20058;-74
2023/06/22 05:55:48;;;;;;;11.85;5.47;;;23.10;99.90;;;;;;5024585;28;20061;-73
2023/06/22 05:58:14;;;;;;;12.77;6.43;;;23.20;99.90;;;;;;5024792;28;20101;-73
2023/06/22 06:00:41;;;;;;;9.90;5.60;;;23.30;99.90;;;;;;5025068;28;20119;-73
2023/06/22 06:03:07;;;;;;;10.73;6.00;;;23.30;99.90;;;;;;5024325;28;20057;-75
2023/06/22 06:05:34;;;;;;;9.98;5.85;;;23.40;99.90;;;;;;5015590;28;20030;-73
2023/06/22 06:08:01;;;;;;;10.82;5.55;;;23.40;99.90;;;;;;5004863;28;20034;-78
2023/06/22 06:10:29;;;;;;;8.55;5.28;;;23.30;99.90;;;;;;5016867;28;20014;-74
2023/06/22 06:12:55;;;;;;;;;;;23.30;99.90;;;;;;5024544;28;20021;-72
2023/06/22 06:15:21;;;;;;;10.40;6.55;;;23.30;99.90;;;;;;5024777;28;19913;-72
2023/06/22 06:17:55;;;;;;;12.65;6.32;;;23.30;99.90;;;;;;5024691;28;20044;-72
2023/06/22 06:20:23;;;;;;;9.40;5.45;;;23.40;99.90;;;;;;5024605;28;20113;-71
2023/06/22 06:22:50;;;;;;;10.27;6.15;;;23.30;99.90;;;;;;5024394;28;20030;-73
2023/06/22 06:25:16;;;;;;;10.93;5.90;;;23.50;99.90;;;;;;5022469;28;20026;-73
2023/06/22 06:27:50;;;;;;;12.15;6.47;;;23.50;99.90;;;;;;5005777;28;20038;-72
2023/06/22 06:30:18;;;;;;;11.20;6.00;;;23.60;99.90;;;;;;5004853;28;20069;-72
2023/06/22 06:32:46;;;;;;;9.15;5.75;;;23.80;99.90;;;;;;5004633;28;20034;-73
2023/06/22 06:35:13;;;;;;;9.88;5.53;;;23.90;99.90;;;;;;5004335;28;20031;-72
2023/06/22 06:37:41;;;;;;;10.15;5.65;;;24.10;99.90;;;;;;5004926;28;20065;-73
2023/06/22 06:40:10;;;;;;;9.95;5.38;;;24.30;99.90;;;;;;5004261;28;20034;-75
2023/06/22 06:42:41;;;;;;;9.10;5.00;;;24.30;99.90;;;;;;5004737;28;20034;-72
2023/06/22 06:45:08;;;;;;;11.57;6.25;;;24.40;99.90;;;;;;5003037;28;20030;-72
2023/06/22 06:47:34;;;;;;;10.48;5.85;;;24.60;99.90;;;;;;5007877;28;20045;-73
2023/06/22 06:50:00;;;;;;;12.25;5.50;;;24.70;99.90;;;;;;5004339;28;20093;-73
2023/06/22 06:52:26;;;;;;;10.40;5.35;;;24.70;99.90;;;;;;5004725;28;20029;-73
2023/06/22 06:54:52;;;;;;;7.28;5.18;;;24.70;99.90;;;;;;5003872;28;20042;-72
2023/06/22 06:57:20;;;;;;;8.50;5.20;;;24.90;99.90;;;;;;5004631;28;20025;-71
2023/06/22 06:59:46;;;;;;;7.78;5.05;;;24.90;99.90;;;;;;5004579;28;20033;-71
2023/06/22 07:02:12;;;;;;;8.30;4.93;;;25.10;99.90;;;;;;5002626;28;20302;-74
2023/06/22 07:04:38;;;;;;;9.07;4.90;;;25.00;99.90;;;;;;5004505;28;20026;-74
2023/06/22 07:07:03;;;;;;;8.25;4.97;;;25.10;99.90;;;;;;5006651;28;20026;-72
2023/06/22 07:09:29;;;;;;;7.05;4.55;;;25.30;99.90;;;;;;5007974;28;20026;-72
2023/06/22 07:11:55;;;;;;;11.90;7.35;;;25.30;99.90;;;;;;5023550;28;20064;-75
2023/06/22 07:14:20;;;;;;;9.30;5.53;;;25.50;99.90;;;;;;5024118;28;20045;-72
2023/06/22 07:16:47;;;;;;;10.20;4.97;;;25.50;99.90;;;;;;5022436;28;20331;-73
2023/06/22 07:19:13;;;;;;;11.10;5.20;;;25.70;99.90;;;;;;5023277;28;20219;-74
2023/06/22 07:21:41;;;;;;;7.90;5.25;;;25.70;99.90;;;;;;5024087;28;20034;-72
2023/06/22 07:24:07;;;;;;;7.53;4.68;;;25.90;99.90;;;;;;5023511;28;20331;-72
2023/06/22 07:26:34;;;;;;;7.72;4.90;;;25.90;99.90;;;;;;5024046;28;20022;-72
2023/06/22 07:28:59;;;;;;;9.13;5.00;;;26.00;99.90;;;;;;5009391;28;20029;-72
2023/06/22 07:31:26;;;;;;;9.50;5.05;;;26.20;99.90;;;;;;4986724;28;20026;-72
2023/06/22 07:33:51;;;;;;;10.95;5.43;;;26.30;99.90;;;;;;5003593;28;20046;-71
2023/06/22 07:36:18;;;;;;;9.85;4.60;;;26.30;99.90;;;;;;5002211;28;20078;-74
2023/06/22 07:38:43;;;;;;;12.70;7.85;;;26.50;99.90;;;;;;5003992;28;20085;-73
2023/06/22 07:41:09;;;;;;;8.45;4.63;;;26.50;99.90;;;;;;5002387;28;20042;-72
2023/06/22 07:43:36;;;;;;;8.60;4.45;;;26.40;99.90;;;;;;5003915;28;20058;-72
2023/06/22 07:46:05;;;;;;;8.02;4.40;;;26.70;99.90;;;;;;5002106;28;20252;-73
2023/06/22 07:48:31;;;;;;;7.03;4.75;;;26.80;99.90;;;;;;5006682;28;20255;-72
2023/06/22 07:50:57;;;;;;;6.78;3.92;;;26.80;99.90;;;;;;5003082;28;20026;-74
2023/06/22 07:53:23;;;;;;;7.65;4.25;;;27.00;99.90;;;;;;5002567;28;20041;-72
2023/06/22 07:55:49;;;;;;;8.38;4.35;;;27.20;99.90;;;;;;5003341;28;20316;-71
2023/06/22 07:58:16;;;;;;;11.95;4.90;;;27.20;99.90;;;;;;5002082;28;20212;-72
2023/06/22 08:00:41;;;;;;;8.80;4.38;;;27.30;99.90;;;;;;5003219;28;20085;-70
2023/06/22 08:03:07;;;;;;;7.15;4.07;;;27.40;99.90;;;;;;5002565;28;20073;-72
2023/06/22 08:05:33;;;;;;;6.97;4.10;;;27.50;99.90;;;;;;5003583;28;20342;-72
2023/06/22 08:07:59;;;;;;;8.05;4.13;;;27.70;99.80;;;;;;5002652;28;20035;-71
2023/06/22 08:10:25;;;;;;;8.38;4.97;;;27.70;99.50;;;;;;5016096;28;20034;-71
2023/06/22 08:12:52;;;;;;;8.50;4.70;;;27.90;99.50;;;;;;5022728;28;20042;-71
2023/06/22 08:15:18;;;;;;;9.02;4.47;;;27.90;99.20;;;;;;5022742;28;20038;-71
2023/06/22 08:17:45;;;;;;;7.90;4.63;;;28.00;98.70;;;;;;5023343;28;20026;-72
2023/06/22 08:20:12;;;;;;;6.40;4.43;;;28.10;98.10;;;;;;5021305;28;20028;-72
2023/06/22 08:22:39;;;;;;;8.57;4.35;;;28.40;98.10;;;;;;5023181;28;20428;-71
2023/06/22 08:25:06;;;;;;;7.28;3.97;;;28.80;97.20;;;;;;5022604;28;20140;-71
2023/06/22 08:27:32;;;;;;;9.85;3.92;;;28.90;96.90;;;;;;5023144;28;20096;-71
2023/06/22 08:29:58;;;;;;;7.00;4.20;;;29.00;96.40;;;;;;5023588;28;20072;-73
2023/06/22 08:32:28;;;;;;;8.07;4.03;;;29.40;96.10;;;;;;5007266;28;20026;-71
2023/06/22 08:34:57;;;;;;;8.20;3.90;;;29.40;95.70;;;;;;5006986;28;20045;-72
2023/06/22 08:37:24;;;;;;;8.25;4.65;;;29.60;95.60;;;;;;5007038;28;20030;-70
2023/06/22 08:39:50;;;;;;;5.70;3.97;;;29.60;95.30;;;;;;5007602;28;20046;-72
2023/06/22 08:42:18;;;;;;;9.43;4.40;;;29.50;95.20;;;;;;5008120;28;20024;-71
2023/06/22 08:44:48;;;;;;;7.95;3.95;;;29.70;95.20;;;;;;5006659;28;20026;-70
2023/06/22 08:47:14;;;;;;;7.63;4.50;;;29.90;94.80;;;;;;5009108;28;20026;-70
2023/06/22 08:49:39;;;;;;;8.73;4.45;;;30.10;94.40;;;;;;5024671;28;20033;-70
2023/06/22 08:52:05;;;;;;;7.45;4.20;;;30.30;94.40;;;;;;5021506;28;20030;-70
2023/06/22 08:54:32;;;;;;;14.70;4.82;;;30.50;93.30;;;;;;5006909;28;20315;-69
2023/06/22 08:56:58;;;;;;;8.77;4.40;;;30.10;93.30;;;;;;5006697;28;20105;-71
2023/06/22 08:59:24;;;;;;;11.40;6.13;;;30.30;93.20;;;;;;5006786;28;20041;-71
2023/06/22 09:01:50;;;;;;;8.85;4.40;;;30.50;92.90;;;;;;5006249;28;20050;-71
2023/06/22 09:04:15;;;;;;;10.73;4.25;;;30.90;92.70;;;;;;5010372;28;20076;-71
2023/06/22 09:06:45;;;;;;;7.38;3.83;;;31.10;92.20;;;;;;5025968;28;20030;-71
2023/06/22 09:09:13;;;;;;;7.47;4.25;;;31.20;92.00;;;;;;5024092;28;20039;-71
2023/06/22 09:11:38;;;;;;;8.43;4.00;;;31.20;92.00;;;;;;5006509;28;20126;-71
2023/06/22 09:14:05;;;;;;;6.63;3.78;;;31.10;91.90;;;;;;5005526;28;20038;-73
2023/06/22 09:16:30;;;;;;;9.00;4.18;;;31.40;91.70;;;;;;5006365;28;20049;-70
2023/06/22 09:18:56;;;;;;;7.78;3.58;;;31.20;91.20;;;;;;5006231;28;20029;-72
2023/06/22 09:21:23;;;;;;;7.63;4.20;;;31.30;91.60;;;;;;5006046;28;20033;-71
2023/06/22 09:23:51;;;;;;;8.90;3.90;;;31.30;91.20;;;;;;5019739;28;20022;-72
2023/06/22 09:26:19;;;;;;;10.27;4.15;;;31.60;91.00;;;;;;5025424;28;20053;-73
2023/06/22 09:28:45;;;;;;;8.80;4.22;;;31.50;90.90;;;;;;5025822;28;20044;-74
2023/06/22 09:31:11;;;;;;;12.18;3.83;;;31.50;91.00;;;;;;5024245;28;20029;-71
2023/06/22 09:33:40;;;;;;;8.45;3.97;;;31.40;91.00;;;;;;5017097;28;20391;-69
2023/06/22 09:36:09;;;;;;;8.70;4.22;;;31.20;90.90;;;;;;5008322;28;20065;-69
2023/06/22 09:38:36;;;;;;;12.77;4.63;;;31.00;91.10;;;;;;5010537;28;20038;-71
2023/06/22 09:41:02;;;;;;;9.02;4.30;;;30.90;91.20;;;;;;5011493;28;20399;-69
2023/06/22 09:43:28;;;;;;;11.32;4.28;;;31.20;91.20;;;;;;5012729;28;20042;-69
2023/06/22 09:45:53;;;;;;;10.07;3.90;;;31.20;91.30;;;;;;5007238;28;20034;-70
2023/06/22 09:48:19;;;;;;;10.18;4.22;;;31.20;91.40;;;;;;5005238;28;20030;-74
2023/06/22 09:50:45;;;;;;;9.50;4.20;;;31.50;91.40;;;;;;5006029;28;20068;-71
2023/06/22 09:53:10;;;;;;;6.80;3.92;;;31.60;90.90;;;;;;5005245;28;20053;-71
2023/06/22 09:55:36;;;;;;;9.68;4.57;;;31.50;90.60;;;;;;5022386;28;20806;-70
2023/06/22 09:58:02;;;;;;;8.52;3.92;;;31.50;90.30;;;;;;5019114;28;20049;-71
2023/06/22 10:00:28;;;;;;;8.77;4.30;;;31.60;90.50;;;;;;5013251;28;20258;-71
2023/06/22 10:02:55;;;;;;;9.23;4.65;;;31.90;90.20;;;;;;5023836;28;20120;-72
2023/06/22 10:05:21;;;;;;;15.43;9.50;;;32.20;89.40;;;;;;5011358;28;20030;-71
2023/06/22 10:07:47;;;;;;;15.15;8.27;;;32.30;89.80;;;;;;5005575;28;20456;-75
2023/06/22 10:10:13;;;;;;;9.10;4.70;;;32.80;89.00;;;;;;5014447;28;20369;-71
2023/06/22 10:12:47;;;;;;;9.05;4.40;;;33.20;88.50;;;;;;5021888;28;20030;-72
2023/06/22 10:15:13;;;;;;;10.90;4.50;;;33.10;87.50;;;;;;5004950;28;20062;-71
2023/06/22 10:17:39;;;;;;;11.07;4.15;;;33.10;87.30;;;;;;5015239;28;20034;-73
2023/06/22 10:20:11;;;;;;;11.40;4.28;;;33.30;86.40;;;;;;5007064;28;20030;-73
2023/06/22 10:22:41;;;;;;;13.15;5.10;;;33.20;86.20;;;;;;5024977;28;20034;-73
2023/06/22 10:25:07;;;;;;;9.77;5.00;;;33.60;86.40;;;;;;5016097;28;20319;-72
2023/06/22 10:27:33;;;;;;;13.73;4.90;;;33.50;85.00;;;;;;5004938;28;20018;-72
2023/06/22 10:29:59;;;;;;;9.23;4.70;;;33.30;85.00;;;;;;5005104;28;20072;-73
2023/06/22 10:32:24;;;;;;;12.65;4.75;;;33.50;85.60;;;;;;5003078;28;20348;-72
2023/06/22 10:34:50;;;;;;;11.63;4.88;;;33.50;84.90;;;;;;5023008;28;20037;-76
2023/06/22 10:37:16;;;;;;;10.38;4.30;;;33.60;84.70;;;;;;5016592;28;20029;-73
2023/06/22 10:39:41;;;;;;;9.80;4.38;;;33.70;84.50;;;;;;5019239;28;20041;-73
2023/06/22 10:42:07;;;;;;;22.88;15.40;;;34.00;83.90;;;;;;5022234;28;20026;-72
2023/06/22 10:44:33;;;;;;;12.68;4.88;;;34.40;83.00;;;;;;5022416;28;20215;-72
2023/06/22 10:46:59;;;;;;;14.23;5.75;;;34.30;83.20;;;;;;5004823;28;20030;-72
2023/06/22 10:49:24;;;;;;;14.65;4.82;;;34.60;82.70;;;;;;5003889;28;20096;-70
2023/06/22 10:51:50;;;;;;;15.98;10.25;;;34.70;81.80;;;;;;5003810;28;20089;-72
2023/06/22 10:54:18;;;;;;;11.18;4.65;;;35.00;82.10;;;;;;5015573;28;20042;-72
2023/06/22 10:56:43;;;;;;;15.07;5.00;;;34.80;81.80;;;;;;5020797;28;20041;-73
2023/06/22 10:59:09;;;;;;;10.60;4.40;;;34.60;81.90;;;;;;5012964;28;20026;-74
2023/06/22 11:01:36;;;;;;;7.47;4.10;;;34.50;81.10;;;;;;5014625;28;20030;-74
2023/06/22 11:04:03;;;;;;;10.43;4.30;;;34.10;81.60;;;;;;5022327;28;20038;-74
2023/06/22 11:06:29;;;;;;;11.43;4.78;;;34.20;81.80;;;;;;5006109;28;20042;-75
2023/06/22 11:08:55;;;;;;;12.48;4.20;;;34.50;81.30;;;;;;5002700;28;20065;-73
2023/06/22 11:11:20;;;;;;;10.98;4.40;;;34.50;82.00;;;;;;5020949;28;20355;-74
2023/06/22 11:13:46;;;;;;;11.27;4.60;;;34.40;81.30;;;;;;5017664;28;20207;-73
2023/06/22 11:16:12;;;;;;;11.05;4.78;;;34.50;81.40;;;;;;5001935;28;20018;-76
2023/06/22 11:18:37;;;;;;;12.25;4.60;;;34.10;81.50;;;;;;5013773;28;20026;-75
2023/06/22 11:21:03;;;;;;;10.68;4.85;;;34.10;81.50;;;;;;5006619;28;20300;-75
2023/06/22 11:23:29;;;;;;;12.07;4.00;;;34.30;82.10;;;;;;5022661;28;20248;-76
2023/06/22 11:25:55;;;;;;;13.23;4.40;;;33.90;82.00;;;;;;5017420;28;20056;-75
2023/06/22 11:28:21;;;;;;;11.40;4.57;;;33.90;82.20;;;;;;5013247;28;20308;-75
2023/06/22 11:30:46;;;;;;;14.75;7.55;;;34.00;82.50;;;;;;5009875;28;20086;-75
2023/06/22 11:33:12;;;;;;;12.80;4.53;;;34.10;82.30;;;;;;5002720;28;20096;-75
2023/06/22 11:35:38;;;;;;;10.63;4.95;;;34.10;81.50;;;;;;5017331;28;20034;-76
2023/06/22 11:38:04;;;;;;;10.07;4.65;;;34.30;81.70;;;;;;5008486;28;20021;-73
2023/06/22 11:40:30;;;;;;;10.50;5.55;;;34.30;81.70;;;;;;5008888;28;20308;-73
2023/06/22 11:42:56;;;;;;;13.07;7.07;;;34.60;81.70;;;;;;5012186;28;20025;-75
2023/06/22 11:45:22;;;;;;;9.93;6.18;;;35.00;80.50;;;;;;5019211;28;20288;-75
2023/06/22 11:47:48;;;;;;;11.73;4.90;;;35.60;79.30;;;;;;5005631;28;20189;-74
2023/06/22 11:50:14;;;;;;;12.88;5.05;;;35.60;77.80;;;;;;5018387;28;20076;-75
2023/06/22 11:52:40;;;;;;;9.98;4.40;;;36.10;77.60;;;;;;5022389;28;20028;-74
2023/06/22 11:55:06;;;;;;;11.35;4.72;;;36.40;76.80;;;;;;5021625;28;20323;-74
2023/06/22 11:57:51;;;;;;;8.63;4.32;;;36.60;76.30;;;;;;5020982;28;20046;-74
2023/06/22 12:00:17;;;;;;;11.73;4.40;;;36.50;75.90;;;;;;5011951;28;20100;-75
2023/06/22 12:02:44;;;;;;;10.20;4.60;;;36.60;75.20;;;;;;4964924;28;1096871;-74
2023/06/22 12:05:10;;;;;;;12.98;4.85;;;36.30;75.40;;;;;;5002946;28;20055;-74
2023/06/22 12:07:37;;;;;;;11.75;4.70;;;35.90;76.00;;;;;;5003060;28;20030;-73
2023/06/22 12:10:03;;;;;;;17.70;5.05;;;35.80;75.40;;;;;;5011425;28;20026;-75
2023/06/22 12:12:29;;;;;;;10.38;4.60;;;35.70;75.60;;;;;;5006095;28;20057;-76
2023/06/22 12:14:55;;;;;;;11.32;5.05;;;35.30;76.20;;;;;;5003496;28;20022;-75
2023/06/22 12:17:20;;;;;;;10.73;4.50;;;34.90;75.70;;;;;;5001732;28;20197;-73
2023/06/22 12:19:46;;;;;;;12.10;4.65;;;34.30;75.90;;;;;;5002211;28;20023;-73
2023/06/22 12:22:12;;;;;;;13.85;4.20;;;34.00;77.10;;;;;;5001650;28;20274;-75
2023/06/22 12:24:38;;;;;;;9.48;4.40;;;34.20;77.60;;;;;;5003437;28;20038;-74
2023/06/22 12:27:12;;;;;;;9.45;4.30;;;34.50;77.10;;;;;;5003180;28;20045;-75
2023/06/22 12:29:38;;;;;;;12.02;4.28;;;34.70;77.60;;;;;;5003382;28;20034;-77
2023/06/22 12:32:04;;;;;;;10.40;4.25;;;34.90;77.10;;;;;;5003475;28;20034;-75
2023/06/22 12:34:30;;;;;;;13.05;4.80;;;34.90;76.50;;;;;;5012965;28;20037;-76
2023/06/22 12:36:56;;;;;;;9.60;4.63;;;35.00;76.80;;;;;;5022748;28;20331;-78
2023/06/22 12:39:21;;;;;;;11.05;4.05;;;34.80;76.30;;;;;;5022368;28;20132;-75
2023/06/22 12:41:47;;;;;;;10.75;4.65;;;34.50;76.00;;;;;;5009748;28;20042;-77
2023/06/22 12:44:13;;;;;;;10.38;4.43;;;34.30;76.10;;;;;;5002939;28;20042;-77
2023/06/22 12:46:38;;;;;;;13.13;4.20;;;34.10;77.60;;;;;;5018120;28;20038;-76
2023/06/22 12:49:04;;;;;;;8.60;4.80;;;33.90;78.10;;;;;;5003288;28;20312;-75
2023/06/22 12:51:31;;;;;;;10.70;4.45;;;33.80;78.40;;;;;;5002667;28;20031;-76
2023/06/22 12:53:57;;;;;;;12.60;4.53;;;34.00;79.00;;;;;;5002681;28;20220;-77
2023/06/22 12:56:23;;;;;;;12.27;5.00;;;33.90;79.60;;;;;;5002193;28;20038;-76
2023/06/22 12:58:48;;;;;;;11.57;5.07;;;34.00;80.00;;;;;;5002027;28;20093;-78
2023/06/22 13:01:14;;;;;;;11.85;4.93;;;33.90;80.50;;;;;;5001528;28;20061;-78
2023/06/22 13:03:41;;;;;;;12.38;4.43;;;33.80;81.00;;;;;;5001935;28;20114;-75
2023/06/22 13:06:07;;;;;;;12.25;5.03;;;33.50;81.10;;;;;;5003017;28;20039;-75
2023/06/22 13:08:33;;;;;;;8.13;4.15;;;33.40;82.00;;;;;;5002147;28;20284;-75
2023/06/22 13:10:58;;;;;;;11.55;5.22;;;33.50;81.60;;;;;;5002586;28;20053;-76
2023/06/22 13:13:27;;;;;;;12.75;5.22;;;33.40;81.10;;;;;;5001260;28;20090;-76
2023/06/22 13:15:53;;;;;;;9.85;4.82;;;33.50;81.90;;;;;;5005839;28;20052;-75
2023/06/22 13:18:19;;;;;;;15.32;4.97;;;33.50;81.70;;;;;;5005752;28;20034;-75
2023/06/22 13:20:46;;;;;;;10.55;4.72;;;33.50;81.30;;;;;;5006607;28;20034;-74
2023/06/22 13:23:12;;;;;;;11.95;4.50;;;33.70;80.20;;;;;;5006046;28;20038;-73
2023/06/22 13:25:37;;;;;;;12.20;5.22;;;33.80;80.50;;;;;;5005350;28;20416;-74
2023/06/22 13:28:03;;;;;;;9.07;4.55;;;34.50;79.70;;;;;;5006414;28;20046;-75
2023/06/22 13:30:30;;;;;;;10.85;4.57;;;35.00;78.60;;;;;;5006007;28;20339;-75
2023/06/22 13:32:56;;;;;;;9.25;4.97;;;35.10;78.50;;;;;;5005916;28;20041;-76
2023/06/22 13:35:21;;;;;;;10.85;4.53;;;35.20;78.40;;;;;;5022868;28;20327;-75
2023/06/22 13:37:47;;;;;;;10.77;5.25;;;35.40;78.00;;;;;;5025267;28;20028;-74
2023/06/22 13:40:13;;;;;;;13.80;4.90;;;35.30;77.90;;;;;;5025791;28;20029;-75
2023/06/22 13:42:39;;;;;;;13.38;4.97;;;35.50;77.50;;;;;;5025058;28;20037;-75
2023/06/22 13:45:06;;;;;;;7.97;4.20;;;35.70;76.80;;;;;;5025257;28;20029;-73
2023/06/22 13:47:32;;;;;;;10.25;5.18;;;35.70;76.80;;;;;;5025057;28;20081;-75
2023/06/22 13:49:58;;;;;;;10.77;4.95;;;35.60;77.40;;;;;;5025716;28;20025;-73
2023/06/22 13:52:23;;;;;;;9.15;4.05;;;35.50;77.40;;;;;;5024927;28;20034;-75
2023/06/22 13:54:49;;;;;;;9.10;4.20;;;35.50;77.60;;;;;;5025156;28;20029;-74
2023/06/22 13:57:15;;;;;;;11.68;5.03;;;35.50;76.20;;;;;;5025262;28;20040;-75
2023/06/22 13:59:41;;;;;;;17.63;4.25;;;35.60;75.80;;;;;;5024725;28;20076;-75
2023/06/22 14:02:06;;;;;;;10.75;4.60;;;35.70;76.00;;;;;;5024775;28;20096;-73
2023/06/22 14:04:32;;;;;;;11.63;4.55;;;35.50;75.20;;;;;;5024598;28;20263;-76
2023/06/22 14:06:58;;;;;;;9.73;4.40;;;35.50;73.90;;;;;;5025362;28;20041;-75
2023/06/22 14:09:25;;;;;;;10.43;4.60;;;35.80;74.40;;;;;;5023757;28;20025;-75
2023/06/22 14:11:50;;;;;;;10.13;3.97;;;36.50;73.30;;;;;;5024779;28;20029;-75
2023/06/22 14:14:16;;;;;;;9.07;4.25;;;37.00;73.00;;;;;;5024596;28;20092;-72
2023/06/22 14:16:42;;;;;;;12.77;4.82;;;37.10;70.70;;;;;;5024362;28;20014;-72
2023/06/22 14:19:08;;;;;;;13.23;4.20;;;38.60;67.80;;;;;;5025070;28;20066;-74
2023/06/22 14:21:33;;;;;;;13.30;3.97;;;39.40;67.10;;;;;;5024408;28;20105;-76
2023/06/22 14:23:59;;;;;;;9.43;4.22;;;40.20;58.80;;;;;;5025139;28;20025;-74
2023/06/22 14:26:25;;;;;;;8.10;3.65;;;40.80;56.60;;;;;;5006995;28;20045;-75
2023/06/22 14:28:50;;;;;;;8.95;4.10;;;41.30;56.50;;;;;;5024452;28;20017;-76
2023/06/22 14:31:17;;;;;;;9.43;4.30;;;40.60;56.20;;;;;;5024801;28;20142;-75
2023/06/22 14:33:48;;;;;;;9.98;4.13;;;40.00;56.70;;;;;;5024553;28;20064;-75
2023/06/22 14:36:14;;;;;;;10.05;3.97;;;39.40;57.60;;;;;;5023614;28;20093;-75
2023/06/22 14:38:40;;;;;;;9.30;4.18;;;38.20;57.90;;;;;;5023885;28;20251;-74
2023/06/22 14:41:05;;;;;;;10.77;3.53;;;38.20;57.50;;;;;;5017056;28;20065;-75
2023/06/22 14:43:31;;;;;;;14.18;4.15;;;38.60;57.20;;;;;;5004628;28;20045;-76
2023/06/22 14:45:57;;;;;;;10.10;3.33;;;39.50;55.10;;;;;;5003582;28;20201;-74
2023/06/22 14:48:23;;;;;;;6.95;3.30;;;40.30;54.30;;;;;;5004287;28;20034;-72
2023/06/22 14:50:49;;;;;;;9.05;3.40;;;42.00;53.10;;;;;;5004853;28;20305;-74
2023/06/22 14:53:14;;;;;;;12.35;4.13;;;42.90;52.30;;;;;;5004738;28;20050;-73
2023/06/22 14:55:41;;;;;;;8.73;3.63;;;42.50;52.00;;;;;;5004051;28;20046;-75
2023/06/22 14:58:06;;;;;;;8.98;3.13;;;43.40;51.30;;;;;;5004544;28;20023;-74
2023/06/22 15:00:32;;;;;;;10.25;3.60;;;43.30;50.90;;;;;;5004075;28;20062;-73
2023/06/22 15:02:59;;;;;;;12.85;3.50;;;41.80;50.90;;;;;;5004244;28;20039;-73
2023/06/22 15:05:25;;;;;;;7.72;3.17;;;41.30;51.00;;;;;;5004030;28;20090;-73
2023/06/22 15:07:51;;;;;;;10.60;3.28;;;41.30;51.80;;;;;;5003068;28;20353;-74
2023/06/22 15:10:17;;;;;;;9.25;2.83;;;40.40;52.10;;;;;;5019311;28;20038;-73
2023/06/22 15:12:42;;;;;;;11.65;2.90;;;39.50;49.50;;;;;;5004022;28;20387;-76
2023/06/22 15:15:08;;;;;;;10.60;3.08;;;38.30;50.50;;;;;;5004202;28;20236;-75
2023/06/22 15:17:34;;;;;;;9.07;2.70;;;37.80;50.80;;;;;;5003583;28;20041;-76
2023/06/22 15:20:00;;;;;;;9.25;2.47;;;37.30;51.30;;;;;;5004109;28;20320;-72
2023/06/22 15:22:26;;;;;;;9.88;2.70;;;37.30;50.90;;;;;;5003360;28;20026;-72
2023/06/22 15:24:53;;;;;;;8.07;2.65;;;37.90;50.90;;;;;;5003624;28;20045;-73
2023/06/22 15:27:19;;;;;;;;;;;39.40;49.50;;;;;;5004248;28;20045;-73
2023/06/22 15:29:45;;;;;;;12.15;2.90;;;40.60;48.30;;;;;;5003204;28;19964;-74
2023/06/22 15:32:11;;;;;;;7.07;2.58;;;40.50;47.90;;;;;;5003868;28;20109;-75
2023/06/22 15:34:38;;;;;;;8.15;2.65;;;39.40;48.40;;;;;;5014744;28;20029;-73
2023/06/22 15:37:04;;;;;;;7.22;2.97;;;38.70;48.90;;;;;;5023278;28;20025;-73
2023/06/22 15:39:29;;;;;;;12.13;3.17;;;38.50;49.40;;;;;;5023393;28;20032;-73
2023/06/22 15:41:56;;;;;;;10.27;2.92;;;38.90;49.50;;;;;;5009456;28;20022;-73
2023/06/22 15:44:23;;;;;;;10.75;2.80;;;38.90;49.00;;;;;;5003250;28;20029;-73
2023/06/22 15:46:49;;;;;;;10.45;2.38;;;38.40;48.80;;;;;;5003949;28;20101;-73
2023/06/22 15:49:15;;;;;;;9.43;2.35;;;38.50;48.60;;;;;;5003578;28;20256;-74
2023/06/22 15:51:41;;;;;;;11.55;2.70;;;37.90;48.70;;;;;;5002106;28;20324;-74
2023/06/22 15:54:06;;;;;;;7.88;2.78;;;37.80;49.10;;;;;;5003879;28;20089;-74
2023/06/22 15:56:32;;;;;;;11.07;2.70;;;37.00;49.70;;;;;;5002899;28;20026;-80
2023/06/22 15:58:58;;;;;;;10.27;2.72;;;36.80;50.30;;;;;;5003258;28;20035;-76
2023/06/22 16:01:24;;;;;;;8.07;2.60;;;35.90;51.10;;;;;;5018268;28;20041;-74
2023/06/22 16:03:50;;;;;;;11.30;2.45;;;35.50;51.80;;;;;;5003754;28;20038;-74
2023/06/22 16:06:16;;;;;;;9.18;2.65;;;34.90;52.80;;;;;;5003298;28;20237;-72
2023/06/22 16:08:41;;;;;;;8.70;2.85;;;34.40;53.70;;;;;;5002964;28;20038;-75
2023/06/22 16:11:07;;;;;;;10.98;2.97;;;34.20;54.20;;;;;;5003131;28;20085;-75
2023/06/22 16:13:33;;;;;;;11.13;2.67;;;34.00;54.70;;;;;;5002695;28;20364;-75
2023/06/22 16:15:59;;;;;;;10.18;2.90;;;34.00;54.90;;;;;;5003186;28;20319;-74
2023/06/22 16:18:25;;;;;;;8.15;3.00;;;34.00;54.70;;;;;;5002871;28;20022;-74
2023/06/22 16:20:50;;;;;;;9.57;3.17;;;33.80;54.90;;;;;;5003460;28;20034;-74
2023/06/22 16:23:16;;;;;;;10.88;2.92;;;33.50;55.50;;;;;;5003589;28;20069;-74
2023/06/22 16:25:45;;;;;;;11.05;2.72;;;33.60;55.80;;;;;;5002940;28;20034;-75
2023/06/22 16:28:11;;;;;;;7.03;2.60;;;33.50;56.10;;;;;;5003407;28;20062;-76
2023/06/22 16:30:36;;;;;;;10.30;3.35;;;33.20;56.10;;;;;;5002917;28;20372;-75
2023/06/22 16:33:02;;;;;;;9.82;2.70;;;33.00;56.70;;;;;;5003121;28;20030;-73
2023/06/22 16:35:28;;;;;;;7.07;2.70;;;32.90;57.30;;;;;;5003297;28;20085;-73
2023/06/22 16:37:55;;;;;;;10.07;2.70;;;32.90;57.30;;;;;;5003205;28;20117;-75
2023/06/22 16:40:21;;;;;;;10.05;2.58;;;32.80;57.50;;;;;;5002957;28;20026;-75
2023/06/22 16:42:48;;;;;;;11.80;3.17;;;32.80;56.80;;;;;;5002955;28;20308;-74
2023/06/22 16:45:17;;;;;;;10.07;3.08;;;32.60;56.90;;;;;;5003080;28;20042;-75
2023/06/22 16:47:45;;;;;;;11.77;2.95;;;32.60;57.00;;;;;;5002645;28;20022;-74
2023/06/22 16:50:10;;;;;;;8.38;2.60;;;32.70;57.00;;;;;;5005067;28;20031;-74
2023/06/22 16:52:36;;;;;;;13.23;3.10;;;32.60;57.10;;;;;;5006182;28;20033;-74
2023/06/22 16:55:05;;;;;;;8.98;3.38;;;32.60;57.00;;;;;;5006474;28;20065;-75
2023/06/22 16:57:31;;;;;;;10.23;2.60;;;32.50;57.80;;;;;;5006352;28;20229;-73
2023/06/22 16:59:57;;;;;;;7.95;3.22;;;32.20;57.30;;;;;;5006833;28;20018;-74
2023/06/22 17:02:24;;;;;;;8.85;2.78;;;32.30;57.50;;;;;;5006053;28;20034;-73
2023/06/22 17:04:54;;;;;;;7.47;2.47;;;32.20;57.70;;;;;;5017696;28;20105;-73
2023/06/22 17:07:22;;;;;;;11.05;3.08;;;32.20;57.80;;;;;;5025283;28;20385;-72
2023/06/22 17:09:49;;;;;;;8.95;2.65;;;32.50;57.60;;;;;;5026094;28;20090;-75
2023/06/22 17:12:18;;;;;;;12.25;3.78;;;33.30;57.00;;;;;;5026269;28;20056;-73
2023/06/22 17:14:44;;;;;;;8.73;2.75;;;33.20;56.90;;;;;;5025426;28;20304;-74
2023/06/22 17:17:19;;;;;;;7.72;2.72;;;33.10;57.20;;;;;;5026164;28;20049;-78
2023/06/22 17:19:47;;;;;;;8.57;2.85;;;32.60;58.10;;;;;;5026036;28;20034;-76
2023/06/22 17:22:13;;;;;;;8.93;2.95;;;32.20;58.90;;;;;;5025836;28;20062;-74
2023/06/22 17:24:40;;;;;;;10.00;3.10;;;31.90;59.60;;;;;;5025233;28;20030;-73
2023/06/22 17:27:06;;;;;;;9.00;2.65;;;31.90;60.10;;;;;;5025748;28;20057;-74
2023/06/22 17:29:35;;;;;;;9.18;2.70;;;32.30;59.80;;;;;;5025099;28;20033;-74
2023/06/22 17:32:02;;;;;;;9.30;2.75;;;32.80;59.00;;;;;;5025746;28;20026;-72
2023/06/22 17:34:29;;;;;;;11.93;2.80;;;32.50;59.10;;;;;;5024947;28;20377;-74
2023/06/22 17:36:56;;;;;;;9.45;2.95;;;32.00;59.10;;;;;;5025460;28;20489;-72